createdAt,value
2018-07-06T00:01:19.235Z,19.50
2018-07-06T00:03:58.302Z,19.63
2018-07-06T00:06:37.549Z,19.67
2018-07-06T00:09:16.675Z,19.56
2018-07-06T00:11:55.681Z,19.56
2018-07-06T00:14:34.694Z,19.53
2018-07-06T00:17:14.106Z,19.54
2018-07-06T00:19:53.264Z,19.50
2018-07-06T00:22:32.581Z,19.44
2018-07-06T00:25:11.450Z,19.44
2018-07-06T00:27:50.513Z,19.46
2018-07-06T00:30:29.460Z,19.42
2018-07-06T00:33:08.812Z,19.37
2018-07-06T00:35:48.053Z,19.45
2018-07-06T00:38:27.287Z,19.48
2018-07-06T00:41:06.245Z,19.45
2018-07-06T00:43:45.517Z,19.49
2018-07-06T00:46:24.496Z,19.68
2018-07-06T00:49:03.692Z,19.77
2018-07-06T00:51:42.686Z,19.79
2018-07-06T00:54:21.773Z,19.79
2018-07-06T00:57:00.603Z,19.65
2018-07-06T00:59:39.610Z,19.53
2018-07-06T01:02:18.573Z,19.36
2018-07-06T01:04:57.995Z,19.47
2018-07-06T01:07:37.053Z,19.47
2018-07-06T01:10:16.442Z,19.47
2018-07-06T01:13:03.381Z,19.55
2018-07-06T01:15:42.813Z,19.48
2018-07-06T01:18:21.965Z,19.43
2018-07-06T01:21:01.209Z,19.36
2018-07-06T01:23:40.544Z,19.50
2018-07-06T01:26:19.921Z,19.65
2018-07-06T01:28:59.363Z,19.71
2018-07-06T01:31:38.460Z,19.78
2018-07-06T01:34:17.551Z,19.83
2018-07-06T01:36:56.902Z,19.85
2018-07-06T01:39:36.391Z,19.93
2018-07-06T01:42:15.473Z,19.97
2018-07-06T01:44:54.401Z,19.94
2018-07-06T01:47:33.734Z,20.02
2018-07-06T01:50:13.076Z,20.06
2018-07-06T01:52:52.232Z,20.05
2018-07-06T01:55:31.255Z,20.16
2018-07-06T01:58:10.744Z,20.17
2018-07-06T02:00:49.790Z,20.10
2018-07-06T02:03:29.212Z,20.09
2018-07-06T02:06:08.147Z,20.02
2018-07-06T02:08:47.129Z,19.92
2018-07-06T02:11:26.131Z,19.84
2018-07-06T02:14:05.187Z,19.84
2018-07-06T02:16:44.114Z,19.56
2018-07-06T02:19:23.486Z,19.51
2018-07-06T02:22:02.554Z,19.54
2018-07-06T02:24:41.878Z,19.41
2018-07-06T02:27:20.894Z,19.35
2018-07-06T02:29:59.861Z,19.30
2018-07-06T02:32:39.029Z,19.20
2018-07-06T02:35:18.280Z,19.18
2018-07-06T02:37:57.343Z,19.18
2018-07-06T02:40:36.405Z,19.16
2018-07-06T02:43:15.284Z,19.09
2018-07-06T02:45:54.384Z,19.06
2018-07-06T02:48:33.232Z,19.01
2018-07-06T02:51:12.192Z,19.04
2018-07-06T02:53:51.258Z,19.11
2018-07-06T02:56:30.450Z,19.09
2018-07-06T02:59:09.491Z,19.03
2018-07-06T03:01:48.698Z,19.10
2018-07-06T03:04:27.742Z,19.10
2018-07-06T03:07:06.829Z,19.08
2018-07-06T03:09:46.095Z,19.07
2018-07-06T03:12:25.146Z,19.09
2018-07-06T03:15:04.166Z,19.09
2018-07-06T03:17:43.351Z,19.17
2018-07-06T03:20:22.327Z,19.18
2018-07-06T03:23:01.834Z,19.30
2018-07-06T03:25:40.807Z,19.35
2018-07-06T03:28:20.648Z,19.26
2018-07-06T03:30:59.690Z,19.21
2018-07-06T03:33:38.714Z,19.24
2018-07-06T03:36:17.695Z,19.32
2018-07-06T03:38:57.333Z,19.47
2018-07-06T03:41:36.340Z,19.54
2018-07-06T03:44:15.348Z,19.58
2018-07-06T03:46:54.349Z,19.66
2018-07-06T03:49:33.390Z,19.74
2018-07-06T03:52:12.342Z,19.88
2018-07-06T03:54:54.898Z,19.87
2018-07-06T03:57:33.836Z,19.95
2018-07-06T04:00:13.276Z,20.10
2018-07-06T04:02:52.615Z,20.16
2018-07-06T04:05:31.940Z,20.25
2018-07-06T04:08:10.933Z,20.24
2018-07-06T04:10:49.972Z,20.30
2018-07-06T04:13:28.863Z,20.33
2018-07-06T04:16:08.248Z,20.38
2018-07-06T04:18:47.413Z,20.44
2018-07-06T04:21:26.421Z,20.49
2018-07-06T04:24:05.504Z,20.48
2018-07-06T04:26:44.338Z,20.67
2018-07-06T04:29:23.273Z,20.62
2018-07-06T04:32:02.334Z,20.57
2018-07-06T04:34:41.375Z,20.62
2018-07-06T04:37:20.806Z,20.63
2018-07-06T04:39:59.725Z,20.60
2018-07-06T04:42:39.015Z,20.78
2018-07-06T04:45:17.983Z,20.79
2018-07-06T04:47:57.760Z,21.03
2018-07-06T04:50:36.855Z,21.10
2018-07-06T04:53:15.901Z,21.22
2018-07-06T04:55:54.919Z,21.28
2018-07-06T04:58:34.014Z,21.42
2018-07-06T05:01:13.073Z,21.58
2018-07-06T05:03:52.135Z,21.64
2018-07-06T05:06:31.083Z,21.70
2018-07-06T05:09:10.435Z,21.82
2018-07-06T05:11:49.452Z,21.96
2018-07-06T05:14:28.605Z,22.08
2018-07-06T05:17:07.832Z,22.21
2018-07-06T05:19:46.781Z,22.30
2018-07-06T05:22:25.895Z,22.41
2018-07-06T05:25:05.091Z,22.59
2018-07-06T05:27:44.172Z,22.60
2018-07-06T05:30:23.649Z,22.69
2018-07-06T05:33:02.700Z,22.71
2018-07-06T05:35:41.752Z,22.71
2018-07-06T05:38:20.776Z,22.86
2018-07-06T05:40:59.785Z,23.03
2018-07-06T05:43:38.855Z,23.03
2018-07-06T05:46:23.190Z,23.11
2018-07-06T05:49:02.287Z,23.15
2018-07-06T05:51:41.404Z,23.19
2018-07-06T05:54:20.292Z,23.22
2018-07-06T05:56:59.420Z,23.19
2018-07-06T05:59:38.706Z,23.28
2018-07-06T06:02:18.022Z,23.39
2018-07-06T06:04:57.191Z,23.43
2018-07-06T06:07:26.062Z,23.56
2018-07-06T06:09:54.188Z,23.73
2018-07-06T06:12:22.248Z,23.82
2018-07-06T06:14:51.358Z,23.84
2018-07-06T06:17:19.334Z,23.89
2018-07-06T06:19:47.400Z,24.02
2018-07-06T06:22:15.392Z,24.14
2018-07-06T06:24:43.549Z,24.31
2018-07-06T06:27:11.980Z,24.22
2018-07-06T06:29:40.577Z,24.25
2018-07-06T06:32:09.495Z,24.23
2018-07-06T06:34:37.524Z,24.26
2018-07-06T06:37:05.556Z,24.44
2018-07-06T06:39:34.063Z,24.45
2018-07-06T06:42:02.195Z,24.48
2018-07-06T06:44:30.395Z,24.50
2018-07-06T06:46:59.478Z,24.67
2018-07-06T06:49:28.868Z,24.49
2018-07-06T06:51:57.200Z,24.55
2018-07-06T06:54:25.447Z,24.62
2018-07-06T06:56:53.922Z,24.76
2018-07-06T06:59:22.543Z,24.77
2018-07-06T07:01:50.702Z,24.95
2018-07-06T07:04:19.142Z,25.07
2018-07-06T07:06:47.129Z,25.24
2018-07-06T07:09:15.195Z,25.33
2018-07-06T07:11:43.249Z,25.42
2018-07-06T07:14:11.322Z,25.60
2018-07-06T07:16:39.354Z,25.82
2018-07-06T07:19:07.335Z,25.85
2018-07-06T07:21:35.483Z,25.92
2018-07-06T07:24:03.548Z,26.00
2018-07-06T07:26:34.638Z,26.21
2018-07-06T07:29:16.001Z,26.21
2018-07-06T07:31:47.322Z,26.29
2018-07-06T07:34:18.116Z,26.38
2018-07-06T07:36:47.777Z,26.46
2018-07-06T07:39:16.677Z,26.38
2018-07-06T07:41:44.832Z,26.49
2018-07-06T07:44:15.176Z,26.66
2018-07-06T07:46:43.524Z,26.79
2018-07-06T07:49:12.160Z,26.93
2018-07-06T07:52:06.377Z,26.84
2018-07-06T07:54:54.585Z,26.88
2018-07-06T07:57:23.650Z,26.67
2018-07-06T07:59:55.547Z,26.38
2018-07-06T08:02:23.720Z,26.30
2018-07-06T08:04:53.039Z,26.33
2018-07-06T08:07:21.249Z,26.47
2018-07-06T08:09:50.368Z,26.79
2018-07-06T08:12:18.308Z,26.91
2018-07-06T08:14:46.546Z,27.06
2018-07-06T08:17:14.568Z,27.11
2018-07-06T08:19:42.495Z,26.93
2018-07-06T08:22:10.468Z,26.98
2018-07-06T08:24:38.475Z,27.11
2018-07-06T08:27:06.587Z,27.13
2018-07-06T08:29:34.622Z,27.06
2018-07-06T08:32:03.616Z,27.09
2018-07-06T08:34:42.557Z,26.92
2018-07-06T08:37:26.300Z,26.73
2018-07-06T08:39:55.102Z,26.70
2018-07-06T08:42:23.974Z,26.73
2018-07-06T08:44:52.348Z,26.93
2018-07-06T08:47:20.995Z,27.17
2018-07-06T08:49:48.983Z,27.54
2018-07-06T08:52:17.544Z,27.79
2018-07-06T08:54:45.573Z,27.90
2018-07-06T08:57:13.650Z,28.10
2018-07-06T08:59:41.726Z,28.33
2018-07-06T09:02:09.711Z,28.35
2018-07-06T09:04:37.743Z,28.40
2018-07-06T09:07:05.782Z,28.43
2018-07-06T09:09:33.687Z,28.25
2018-07-06T09:12:01.649Z,28.43
2018-07-06T09:14:29.640Z,28.28
2018-07-06T09:16:57.656Z,28.11
2018-07-06T09:19:25.681Z,28.08
2018-07-06T09:21:53.661Z,28.20
2018-07-06T09:24:21.703Z,28.41
2018-07-06T09:26:49.651Z,28.56
2018-07-06T09:29:17.638Z,28.13
2018-07-06T09:31:45.788Z,28.17
2018-07-06T09:34:13.842Z,28.40
2018-07-06T09:36:41.800Z,28.54
2018-07-06T09:39:11.412Z,28.58
2018-07-06T09:41:39.414Z,28.79
2018-07-06T09:44:07.794Z,29.00
2018-07-06T09:46:36.395Z,29.02
2018-07-06T09:49:04.646Z,29.01
2018-07-06T09:51:32.801Z,28.96
2018-07-06T09:54:00.814Z,29.18
2018-07-06T09:56:29.755Z,29.29
2018-07-06T09:59:34.053Z,29.28
2018-07-06T10:02:06.142Z,29.15
2018-07-06T10:04:34.840Z,28.89
2018-07-06T10:07:02.965Z,28.72
2018-07-06T10:09:30.967Z,28.77
2018-07-06T10:11:59.007Z,28.61
2018-07-06T10:14:27.167Z,28.44
2018-07-06T10:16:55.257Z,28.47
2018-07-06T10:19:23.446Z,28.69
2018-07-06T10:21:52.223Z,28.92
2018-07-06T10:24:20.260Z,29.18
2018-07-06T10:26:49.436Z,29.37
2018-07-06T10:30:29.690Z,29.31
2018-07-06T10:32:57.766Z,29.21
2018-07-06T10:35:25.726Z,29.20
2018-07-06T10:37:53.807Z,29.20
2018-07-06T10:40:21.889Z,29.17
2018-07-06T10:42:49.964Z,29.24
2018-07-06T10:45:17.927Z,29.39
2018-07-06T10:47:46.153Z,29.20
2018-07-06T10:50:14.181Z,29.12
2018-07-06T10:52:42.647Z,28.92
2018-07-06T10:55:10.636Z,28.66
2018-07-06T10:57:38.600Z,28.73
2018-07-06T11:00:06.776Z,28.84
2018-07-06T11:02:34.891Z,29.05
2018-07-06T11:05:02.904Z,29.26
2018-07-06T11:07:30.879Z,29.42
2018-07-06T11:09:58.934Z,29.56
2018-07-06T11:12:26.891Z,29.50
2018-07-06T11:14:54.978Z,29.50
2018-07-06T11:17:23.012Z,29.26
2018-07-06T11:19:51.040Z,28.95
2018-07-06T11:22:19.126Z,28.77
2018-07-06T11:24:47.155Z,28.63
2018-07-06T11:27:15.165Z,28.45
2018-07-06T11:29:44.523Z,28.52
2018-07-06T11:32:12.675Z,28.61
2018-07-06T11:34:40.629Z,28.91
2018-07-06T11:37:09.141Z,29.33
2018-07-06T11:39:38.242Z,29.71
2018-07-06T11:42:06.311Z,29.93
2018-07-06T11:44:34.379Z,30.00
2018-07-06T11:47:02.411Z,30.11
2018-07-06T11:49:30.810Z,30.38
2018-07-06T11:51:58.958Z,30.42
2018-07-06T11:54:27.206Z,30.48
2018-07-06T11:56:56.058Z,30.67
2018-07-06T11:59:24.168Z,30.78
2018-07-06T12:04:25.769Z,30.97
2018-07-06T12:06:56.686Z,30.98
2018-07-06T12:09:24.735Z,31.13
2018-07-06T12:11:52.849Z,30.98
2018-07-06T12:14:22.557Z,30.87
2018-07-06T12:16:50.595Z,30.40
2018-07-06T12:19:18.999Z,30.05
2018-07-06T12:21:47.355Z,29.73
2018-07-06T12:24:15.592Z,29.58
2018-07-06T12:26:45.602Z,29.50
2018-07-06T12:29:14.376Z,29.64
2018-07-06T12:31:42.738Z,29.90
2018-07-06T12:34:11.778Z,29.83
2018-07-06T12:36:39.837Z,29.69
2018-07-06T12:39:09.172Z,29.80
2018-07-06T12:41:37.554Z,29.90
2018-07-06T12:44:13.757Z,30.19
2018-07-06T12:46:41.751Z,31.99
2018-07-06T12:49:10.293Z,33.00
2018-07-06T12:51:38.324Z,33.20
2018-07-06T12:54:06.380Z,33.11
2018-07-06T12:56:35.502Z,32.51
2018-07-06T12:59:04.356Z,31.85
2018-07-06T13:01:32.513Z,31.98
2018-07-06T13:04:01.249Z,31.65
2018-07-06T13:06:31.414Z,31.39
2018-07-06T13:09:00.388Z,31.08
2018-07-06T13:11:28.689Z,30.76
2018-07-06T13:13:56.971Z,31.57
2018-07-06T13:16:26.061Z,32.98
2018-07-06T13:18:55.326Z,34.35
2018-07-06T13:21:23.747Z,35.23
2018-07-06T13:23:53.106Z,34.89
2018-07-06T13:26:21.219Z,33.12
2018-07-06T13:28:50.472Z,31.78
2018-07-06T13:31:19.429Z,30.93
2018-07-06T13:33:48.525Z,31.41
2018-07-06T13:36:19.947Z,31.67
2018-07-06T13:39:08.233Z,31.58
2018-07-06T13:41:36.745Z,32.48
2018-07-06T13:44:04.886Z,31.70
2018-07-06T13:46:32.844Z,31.07
2018-07-06T13:49:00.878Z,30.74
2018-07-06T13:51:28.843Z,30.68
2018-07-06T13:53:56.791Z,31.09
2018-07-06T13:56:24.768Z,32.05
2018-07-06T13:58:52.959Z,33.18
2018-07-06T14:01:20.963Z,33.41
2018-07-06T14:03:48.947Z,33.32
2018-07-06T14:06:17.430Z,33.24
2018-07-06T14:08:46.794Z,32.87
2018-07-06T14:11:14.799Z,32.06
2018-07-06T14:13:42.685Z,31.54
2018-07-06T14:16:10.757Z,31.08
2018-07-06T14:18:38.690Z,31.01
2018-07-06T14:21:06.695Z,31.18
2018-07-06T14:23:34.687Z,32.00
2018-07-06T14:26:02.728Z,33.03
2018-07-06T14:28:30.822Z,33.33
2018-07-06T14:30:59.043Z,33.56
2018-07-06T14:33:27.713Z,33.27
2018-07-06T14:35:55.671Z,33.01
2018-07-06T14:38:23.714Z,32.53
2018-07-06T14:40:51.649Z,31.93
2018-07-06T14:43:19.673Z,32.32
2018-07-06T14:45:47.592Z,32.54
2018-07-06T14:48:15.613Z,32.79
2018-07-06T14:50:43.587Z,32.39
2018-07-06T14:53:11.703Z,31.74
2018-07-06T14:55:39.648Z,31.14
2018-07-06T14:58:08.115Z,30.86
2018-07-06T15:00:36.130Z,30.60
2018-07-06T15:03:05.213Z,30.50
2018-07-06T15:05:33.152Z,30.61
2018-07-06T15:08:01.164Z,30.86
2018-07-06T15:10:29.050Z,30.76
2018-07-06T15:12:57.076Z,30.48
2018-07-06T15:15:25.057Z,30.73
2018-07-06T15:17:53.083Z,30.55
2018-07-06T15:20:20.975Z,30.37
2018-07-06T15:22:49.443Z,30.30
2018-07-06T15:25:17.469Z,30.23
2018-07-06T15:27:45.438Z,30.44
2018-07-06T15:30:14.211Z,30.41
2018-07-06T15:32:42.148Z,30.52
2018-07-06T15:35:10.266Z,30.55
2018-07-06T15:37:38.131Z,30.45
2018-07-06T15:40:06.165Z,30.22
2018-07-06T15:42:34.147Z,30.49
2018-07-06T15:45:02.153Z,31.28
2018-07-06T15:47:30.080Z,32.05
2018-07-06T15:49:58.676Z,32.74
2018-07-06T15:52:26.661Z,33.34
2018-07-06T15:54:54.639Z,33.85
2018-07-06T15:57:22.685Z,34.25
2018-07-06T15:59:50.666Z,34.55
2018-07-06T16:02:18.733Z,34.63
2018-07-06T16:04:46.683Z,34.72
2018-07-06T16:07:14.709Z,34.61
2018-07-06T16:09:42.740Z,34.67
2018-07-06T16:12:10.733Z,34.94
2018-07-06T16:14:38.739Z,35.24
2018-07-06T16:17:06.720Z,35.25
2018-07-06T16:19:35.366Z,35.28
2018-07-06T16:22:03.351Z,35.34
2018-07-06T16:24:31.246Z,35.21
2018-07-06T16:26:59.147Z,34.81
2018-07-06T16:29:27.196Z,34.26
2018-07-06T16:31:55.218Z,34.45
2018-07-06T16:34:23.220Z,34.49
2018-07-06T16:36:51.216Z,34.47
2018-07-06T16:39:19.113Z,34.25
2018-07-06T16:41:47.058Z,34.11
2018-07-06T16:44:15.212Z,34.32
2018-07-06T16:46:43.220Z,34.42
2018-07-06T16:49:11.346Z,34.42
2018-07-06T16:51:39.388Z,33.96
2018-07-06T16:54:07.340Z,33.49
2018-07-06T16:56:35.290Z,32.78
2018-07-06T16:59:03.303Z,31.96
2018-07-06T17:01:31.339Z,31.59
2018-07-06T17:03:59.540Z,31.12
2018-07-06T17:06:27.603Z,30.73
2018-07-06T17:08:55.792Z,30.40
2018-07-06T17:11:23.754Z,30.03
2018-07-06T17:13:52.175Z,29.86
2018-07-06T17:16:20.205Z,29.62
2018-07-06T17:18:48.144Z,29.44
2018-07-06T17:21:16.195Z,29.16
2018-07-06T17:23:44.142Z,28.83
2018-07-06T17:26:12.262Z,28.57
2018-07-06T17:28:40.235Z,28.10
2018-07-06T17:31:08.178Z,27.63
2018-07-06T17:33:36.341Z,27.32
2018-07-06T17:36:04.478Z,26.98
2018-07-06T17:38:33.804Z,26.76
2018-07-06T17:41:01.962Z,26.43
2018-07-06T17:43:29.991Z,26.29
2018-07-06T17:45:58.587Z,26.19
2018-07-06T17:48:26.894Z,26.06
2018-07-06T17:50:54.968Z,25.99
2018-07-06T17:53:22.940Z,25.86
2018-07-06T17:55:51.067Z,25.78
2018-07-06T17:58:19.197Z,25.64
2018-07-06T18:00:47.259Z,25.52
2018-07-06T18:03:15.418Z,25.54
2018-07-06T18:05:44.426Z,25.34
2018-07-06T18:08:12.456Z,25.04
2018-07-06T18:10:40.583Z,24.97
2018-07-06T18:13:08.822Z,24.97
2018-07-06T18:15:36.983Z,24.81
2018-07-06T18:18:05.060Z,24.72
2018-07-06T18:20:33.152Z,24.73
2018-07-06T18:23:02.356Z,24.70
2018-07-06T18:25:31.379Z,24.67
2018-07-06T18:27:59.365Z,24.67
2018-07-06T18:30:27.402Z,24.62
2018-07-06T18:32:55.375Z,24.62
2018-07-06T18:35:23.474Z,24.61
2018-07-06T18:37:51.739Z,24.63
2018-07-06T18:40:19.687Z,24.63
2018-07-06T18:42:47.757Z,24.59
2018-07-06T18:45:15.820Z,24.54
2018-07-06T18:47:44.695Z,24.48
2018-07-06T18:50:12.860Z,24.40
2018-07-06T18:52:40.897Z,24.37
2018-07-06T18:55:08.997Z,24.33
2018-07-06T18:57:37.058Z,24.29
2018-07-06T19:00:05.090Z,24.23
2018-07-06T19:02:33.078Z,24.14
2018-07-06T19:05:01.190Z,24.11
2018-07-06T19:07:29.272Z,24.15
2018-07-06T19:09:57.617Z,24.19
2018-07-06T19:12:25.649Z,24.02
2018-07-06T19:14:53.709Z,23.88
2018-07-06T19:17:22.446Z,23.92
2018-07-06T19:19:50.427Z,23.76
2018-07-06T19:22:18.564Z,23.35
2018-07-06T19:24:46.545Z,23.23
2018-07-06T19:27:14.600Z,23.12
2018-07-06T19:29:43.168Z,23.07
2018-07-06T19:32:11.270Z,22.97
2018-07-06T19:34:39.328Z,22.80
2018-07-06T19:37:07.761Z,22.85
2018-07-06T19:39:36.071Z,22.92
2018-07-06T19:42:04.538Z,22.89
2018-07-06T19:44:32.544Z,22.97
2018-07-06T19:47:00.607Z,22.93
2018-07-06T19:49:28.601Z,22.91
2018-07-06T19:51:56.843Z,22.82
2018-07-06T19:54:25.665Z,22.72
2018-07-06T19:56:53.807Z,22.66
2018-07-06T19:59:21.924Z,22.48
2018-07-06T20:01:50.096Z,22.45
2018-07-06T20:04:18.140Z,22.31
2018-07-06T20:06:46.490Z,22.20
2018-07-06T20:09:14.716Z,22.24
2018-07-06T20:11:42.904Z,22.27
2018-07-06T20:14:11.134Z,22.26
2018-07-06T20:16:39.267Z,22.16
2018-07-06T20:19:07.221Z,22.17
2018-07-06T20:21:35.282Z,22.08
2018-07-06T20:24:03.370Z,22.06
2018-07-06T20:26:31.380Z,22.02
2018-07-06T20:28:59.449Z,21.98
2018-07-06T20:31:28.694Z,21.97
2018-07-06T20:33:56.986Z,21.98
2018-07-06T20:36:24.930Z,22.01
2018-07-06T20:38:53.982Z,21.95
2018-07-06T20:41:22.031Z,21.86
2018-07-06T20:43:50.165Z,21.80
2018-07-06T20:46:18.200Z,21.71
2018-07-06T20:48:46.280Z,21.54
2018-07-06T20:51:14.276Z,21.52
2018-07-06T20:53:42.417Z,21.50
2018-07-06T20:56:10.399Z,21.36
2018-07-06T20:58:38.599Z,21.29
2018-07-06T21:01:06.743Z,21.32
2018-07-06T21:03:34.786Z,21.39
2018-07-06T21:06:02.808Z,21.46
2018-07-06T21:08:30.829Z,21.37
2018-07-06T21:10:58.964Z,21.39
2018-07-06T21:13:26.969Z,21.21
2018-07-06T21:15:55.062Z,21.29
2018-07-06T21:18:23.130Z,21.25
2018-07-06T21:20:51.355Z,21.34
2018-07-06T21:23:20.313Z,21.45
2018-07-06T21:25:48.243Z,21.39
2018-07-06T21:28:16.246Z,21.26
2018-07-06T21:30:44.161Z,21.17
2018-07-06T21:33:12.126Z,21.09
2018-07-06T21:35:40.156Z,21.07
2018-07-06T21:38:08.201Z,21.11
2018-07-06T21:40:36.130Z,21.02
2018-07-06T21:43:04.051Z,21.00
2018-07-06T21:45:32.033Z,20.90
2018-07-06T21:47:59.980Z,20.95
2018-07-06T21:50:28.009Z,21.08
2018-07-06T21:52:55.975Z,21.05
2018-07-06T21:55:25.594Z,21.00
2018-07-06T21:57:53.526Z,20.92
2018-07-06T22:00:33.046Z,20.80
2018-07-06T22:03:01.010Z,20.77
2018-07-06T22:05:28.991Z,20.79
2018-07-06T22:07:57.009Z,20.82
2018-07-06T22:10:24.980Z,20.91
2018-07-06T22:12:53.005Z,21.00
2018-07-06T22:15:21.080Z,21.00
2018-07-06T22:17:50.576Z,20.92
2018-07-06T22:20:18.555Z,20.83
2018-07-06T22:22:46.586Z,20.75
2018-07-06T22:25:14.543Z,20.62
2018-07-06T22:27:43.022Z,20.66
2018-07-06T22:30:11.030Z,20.71
2018-07-06T22:32:39.155Z,20.70
2018-07-06T22:35:07.228Z,20.71
2018-07-06T22:37:35.183Z,20.67
2018-07-06T22:40:03.135Z,20.59
2018-07-06T22:42:31.927Z,20.43
2018-07-06T22:44:59.836Z,20.33
2018-07-06T22:47:27.797Z,20.27
2018-07-06T22:49:55.888Z,20.27
2018-07-06T22:52:23.840Z,20.39
2018-07-06T22:54:51.830Z,20.35
2018-07-06T22:57:19.915Z,20.33
2018-07-06T22:59:47.859Z,20.29
2018-07-06T23:02:15.798Z,20.16
2018-07-06T23:04:43.743Z,20.19
2018-07-06T23:07:11.744Z,20.10
2018-07-06T23:09:39.733Z,20.13
2018-07-06T23:12:07.674Z,20.18
2018-07-06T23:14:35.629Z,19.99
2018-07-06T23:17:03.940Z,19.89
2018-07-06T23:19:31.884Z,19.79
2018-07-06T23:21:59.817Z,19.69
2018-07-06T23:24:27.863Z,19.80
2018-07-06T23:26:55.850Z,19.83
2018-07-06T23:29:23.893Z,19.81
2018-07-06T23:31:51.840Z,19.69
2018-07-06T23:34:20.684Z,19.66
2018-07-06T23:36:48.662Z,19.71
2018-07-06T23:39:16.641Z,19.79
2018-07-06T23:41:44.560Z,19.89
2018-07-06T23:44:12.484Z,20.08
2018-07-06T23:46:40.473Z,20.03
2018-07-06T23:49:09.241Z,19.78
2018-07-06T23:51:37.217Z,19.79
2018-07-06T23:54:05.274Z,19.80
2018-07-06T23:56:33.234Z,19.73
2018-07-06T23:59:01.156Z,19.71
